sensor_id;sensor_type;location;lat;lon;timestamp;P1;durP1;ratioP1;P2;durP2;ratioP2
15712;SDS011;7957;51.608;6.916;2022-09-29T00:01:07;9.83;;;8.87;;
15712;SDS011;7957;51.608;6.916;2022-09-29T00:03:34;9.40;;;8.60;;
15712;SDS011;7957;51.608;6.916;2022-09-29T00:06:01;10.07;;;9.10;;
15712;SDS011;7957;51.608;6.916;2022-09-29T00:08:31;9.40;;;8.70;;
15712;SDS011;7957;51.608;6.916;2022-09-29T00:10:58;10.00;;;9.10;;
15712;SDS011;7957;51.608;6.916;2022-09-29T00:13:29;10.20;;;9.30;;
15712;SDS011;7957;51.608;6.916;2022-09-29T00:15:56;10.00;;;9.20;;
15712;SDS011;7957;51.608;6.916;2022-09-29T00:18:24;10.57;;;9.47;;
15712;SDS011;7957;51.608;6.916;2022-09-29T00:20:55;9.10;;;8.30;;
15712;SDS011;7957;51.608;6.916;2022-09-29T00:23:24;9.43;;;8.60;;
15712;SDS011;7957;51.608;6.916;2022-09-29T00:26:01;9.97;;;9.10;;
15712;SDS011;7957;51.608;6.916;2022-09-29T00:28:31;9.87;;;8.97;;
15712;SDS011;7957;51.608;6.916;2022-09-29T00:31:02;9.20;;;8.40;;
15712;SDS011;7957;51.608;6.916;2022-09-29T00:33:30;9.77;;;8.87;;
15712;SDS011;7957;51.608;6.916;2022-09-29T00:36:00;9.43;;;8.73;;
15712;SDS011;7957;51.608;6.916;2022-09-29T00:38:29;9.40;;;8.60;;
15712;SDS011;7957;51.608;6.916;2022-09-29T00:40:56;9.50;;;8.70;;
15712;SDS011;7957;51.608;6.916;2022-09-29T00:43:46;9.27;;;8.50;;
15712;SDS011;7957;51.608;6.916;2022-09-29T00:46:17;9.53;;;8.73;;
15712;SDS011;7957;51.608;6.916;2022-09-29T00:48:49;9.13;;;8.40;;
15712;SDS011;7957;51.608;6.916;2022-09-29T00:51:18;9.17;;;8.47;;
15712;SDS011;7957;51.608;6.916;2022-09-29T00:53:46;9.80;;;8.90;;
15712;SDS011;7957;51.608;6.916;2022-09-29T00:56:15;10.00;;;9.10;;
15712;SDS011;7957;51.608;6.916;2022-09-29T00:58:46;9.67;;;8.77;;
15712;SDS011;7957;51.608;6.916;2022-09-29T01:01:18;9.20;;;8.50;;
15712;SDS011;7957;51.608;6.916;2022-09-29T01:03:45;9.53;;;8.73;;
15712;SDS011;7957;51.608;6.916;2022-09-29T01:06:15;9.57;;;8.73;;
15712;SDS011;7957;51.608;6.916;2022-09-29T01:08:46;9.23;;;8.43;;
15712;SDS011;7957;51.608;6.916;2022-09-29T01:11:18;9.77;;;8.83;;
15712;SDS011;7957;51.608;6.916;2022-09-29T01:13:48;9.40;;;8.57;;
15712;SDS011;7957;51.608;6.916;2022-09-29T01:16:15;9.93;;;9.03;;
15712;SDS011;7957;51.608;6.916;2022-09-29T01:18:42;9.60;;;8.70;;
15712;SDS011;7957;51.608;6.916;2022-09-29T01:21:14;10.97;;;9.87;;
15712;SDS011;7957;51.608;6.916;2022-09-29T01:27:01;10.93;;;9.70;;
15712;SDS011;7957;51.608;6.916;2022-09-29T01:32:53;10.33;;;9.43;;
15712;SDS011;7957;51.608;6.916;2022-09-29T01:35:35;10.37;;;9.37;;
15712;SDS011;7957;51.608;6.916;2022-09-29T01:38:13;9.93;;;9.10;;
15712;SDS011;7957;51.608;6.916;2022-09-29T01:40:53;10.10;;;9.10;;
15712;SDS011;7957;51.608;6.916;2022-09-29T01:43:30;10.33;;;9.33;;
15712;SDS011;7957;51.608;6.916;2022-09-29T01:46:02;10.37;;;9.47;;
15712;SDS011;7957;51.608;6.916;2022-09-29T01:48:33;10.60;;;9.60;;
15712;SDS011;7957;51.608;6.916;2022-09-29T01:51:06;10.00;;;9.20;;
15712;SDS011;7957;51.608;6.916;2022-09-29T01:53:39;11.07;;;10.00;;
15712;SDS011;7957;51.608;6.916;2022-09-29T01:56:10;9.97;;;9.17;;
15712;SDS011;7957;51.608;6.916;2022-09-29T01:58:42;10.73;;;9.73;;
15712;SDS011;7957;51.608;6.916;2022-09-29T02:01:17;10.43;;;9.63;;
15712;SDS011;7957;51.608;6.916;2022-09-29T02:03:52;10.87;;;9.87;;
15712;SDS011;7957;51.608;6.916;2022-09-29T02:06:23;10.63;;;9.70;;
15712;SDS011;7957;51.608;6.916;2022-09-29T02:08:54;10.27;;;9.37;;
15712;SDS011;7957;51.608;6.916;2022-09-29T02:11:24;10.47;;;9.57;;
15712;SDS011;7957;51.608;6.916;2022-09-29T02:13:54;11.00;;;10.00;;
15712;SDS011;7957;51.608;6.916;2022-09-29T02:16:27;10.73;;;9.73;;
15712;SDS011;7957;51.608;6.916;2022-09-29T02:18:59;10.33;;;9.43;;
15712;SDS011;7957;51.608;6.916;2022-09-29T02:21:31;11.13;;;9.97;;
15712;SDS011;7957;51.608;6.916;2022-09-29T02:23:58;10.53;;;9.60;;
15712;SDS011;7957;51.608;6.916;2022-09-29T02:26:27;10.07;;;9.17;;
15712;SDS011;7957;51.608;6.916;2022-09-29T02:28:57;10.27;;;9.37;;
15712;SDS011;7957;51.608;6.916;2022-09-29T02:31:25;10.10;;;9.27;;
15712;SDS011;7957;51.608;6.916;2022-09-29T02:33:52;9.70;;;8.90;;
15712;SDS011;7957;51.608;6.916;2022-09-29T02:36:23;9.83;;;9.03;;
15712;SDS011;7957;51.608;6.916;2022-09-29T02:39:00;10.57;;;9.67;;
15712;SDS011;7957;51.608;6.916;2022-09-29T02:41:33;9.63;;;8.73;;
15712;SDS011;7957;51.608;6.916;2022-09-29T02:44:12;10.07;;;9.07;;
15712;SDS011;7957;51.608;6.916;2022-09-29T02:47:00;9.90;;;9.00;;
15712;SDS011;7957;51.608;6.916;2022-09-29T02:49:59;10.03;;;9.13;;
15712;SDS011;7957;51.608;6.916;2022-09-29T02:52:35;9.60;;;8.80;;
15712;SDS011;7957;51.608;6.916;2022-09-29T02:55:11;10.07;;;9.07;;
15712;SDS011;7957;51.608;6.916;2022-09-29T02:57:46;9.67;;;8.83;;
15712;SDS011;7957;51.608;6.916;2022-09-29T03:00:19;9.40;;;8.70;;
15712;SDS011;7957;51.608;6.916;2022-09-29T03:02:46;9.50;;;8.60;;
15712;SDS011;7957;51.608;6.916;2022-09-29T03:05:14;9.40;;;8.60;;
15712;SDS011;7957;51.608;6.916;2022-09-29T03:07:44;9.40;;;8.50;;
15712;SDS011;7957;51.608;6.916;2022-09-29T03:10:12;9.57;;;8.63;;
15712;SDS011;7957;51.608;6.916;2022-09-29T03:12:40;8.20;;;7.40;;
15712;SDS011;7957;51.608;6.916;2022-09-29T03:15:08;8.90;;;8.10;;
15712;SDS011;7957;51.608;6.916;2022-09-29T03:17:36;8.20;;;7.57;;
15712;SDS011;7957;51.608;6.916;2022-09-29T03:20:05;8.87;;;8.07;;
15712;SDS011;7957;51.608;6.916;2022-09-29T03:22:33;9.10;;;8.20;;
15712;SDS011;7957;51.608;6.916;2022-09-29T03:25:03;9.10;;;8.30;;
15712;SDS011;7957;51.608;6.916;2022-09-29T03:27:31;8.83;;;7.93;;
15712;SDS011;7957;51.608;6.916;2022-09-29T03:29:58;8.03;;;7.33;;
15712;SDS011;7957;51.608;6.916;2022-09-29T03:32:25;9.03;;;8.23;;
15712;SDS011;7957;51.608;6.916;2022-09-29T03:34:52;9.97;;;8.37;;
15712;SDS011;7957;51.608;6.916;2022-09-29T03:37:19;9.47;;;8.67;;
15712;SDS011;7957;51.608;6.916;2022-09-29T03:39:47;10.13;;;9.13;;
15712;SDS011;7957;51.608;6.916;2022-09-29T03:42:15;10.00;;;9.00;;
15712;SDS011;7957;51.608;6.916;2022-09-29T03:44:42;9.53;;;8.73;;
15712;SDS011;7957;51.608;6.916;2022-09-29T03:47:09;10.13;;;9.13;;
15712;SDS011;7957;51.608;6.916;2022-09-29T03:49:36;10.50;;;9.50;;
15712;SDS011;7957;51.608;6.916;2022-09-29T03:52:03;10.50;;;9.60;;
15712;SDS011;7957;51.608;6.916;2022-09-29T03:54:31;10.13;;;9.23;;
15712;SDS011;7957;51.608;6.916;2022-09-29T03:56:58;11.17;;;10.07;;
15712;SDS011;7957;51.608;6.916;2022-09-29T03:59:27;10.73;;;9.07;;
15712;SDS011;7957;51.608;6.916;2022-09-29T04:01:54;10.40;;;9.40;;
15712;SDS011;7957;51.608;6.916;2022-09-29T04:04:21;9.77;;;8.77;;
15712;SDS011;7957;51.608;6.916;2022-09-29T04:06:48;10.20;;;9.30;;
15712;SDS011;7957;51.608;6.916;2022-09-29T04:09:15;10.13;;;9.03;;
15712;SDS011;7957;51.608;6.916;2022-09-29T04:11:45;10.67;;;9.70;;
15712;SDS011;7957;51.608;6.916;2022-09-29T04:14:15;10.27;;;9.20;;
15712;SDS011;7957;51.608;6.916;2022-09-29T04:16:43;10.53;;;9.53;;
15712;SDS011;7957;51.608;6.916;2022-09-29T04:19:12;9.40;;;8.50;;
15712;SDS011;7957;51.608;6.916;2022-09-29T04:21:39;9.53;;;8.63;;
15712;SDS011;7957;51.608;6.916;2022-09-29T04:24:06;9.70;;;8.80;;
15712;SDS011;7957;51.608;6.916;2022-09-29T04:26:33;9.83;;;8.87;;
15712;SDS011;7957;51.608;6.916;2022-09-29T04:29:00;9.67;;;8.67;;
15712;SDS011;7957;51.608;6.916;2022-09-29T04:31:27;9.47;;;8.53;;
15712;SDS011;7957;51.608;6.916;2022-09-29T04:33:55;9.90;;;9.00;;
15712;SDS011;7957;51.608;6.916;2022-09-29T04:36:23;9.80;;;8.80;;
15712;SDS011;7957;51.608;6.916;2022-09-29T04:38:50;9.17;;;8.33;;
15712;SDS011;7957;51.608;6.916;2022-09-29T04:41:17;9.57;;;8.60;;
15712;SDS011;7957;51.608;6.916;2022-09-29T04:43:44;10.13;;;9.20;;
15712;SDS011;7957;51.608;6.916;2022-09-29T04:46:11;9.60;;;8.67;;
15712;SDS011;7957;51.608;6.916;2022-09-29T04:48:39;9.53;;;8.60;;
15712;SDS011;7957;51.608;6.916;2022-09-29T04:51:08;9.53;;;8.63;;
15712;SDS011;7957;51.608;6.916;2022-09-29T04:53:35;9.70;;;8.80;;
15712;SDS011;7957;51.608;6.916;2022-09-29T04:56:06;10.13;;;9.13;;
15712;SDS011;7957;51.608;6.916;2022-09-29T04:58:33;10.73;;;9.60;;
15712;SDS011;7957;51.608;6.916;2022-09-29T05:01:07;10.30;;;9.17;;
15712;SDS011;7957;51.608;6.916;2022-09-29T05:03:36;10.30;;;9.20;;
15712;SDS011;7957;51.608;6.916;2022-09-29T05:06:04;11.03;;;9.70;;
15712;SDS011;7957;51.608;6.916;2022-09-29T05:08:34;10.67;;;9.43;;
15712;SDS011;7957;51.608;6.916;2022-09-29T05:11:02;10.27;;;9.17;;
15712;SDS011;7957;51.608;6.916;2022-09-29T05:13:30;11.47;;;10.03;;
15712;SDS011;7957;51.608;6.916;2022-09-29T05:15:57;10.60;;;9.50;;
15712;SDS011;7957;51.608;6.916;2022-09-29T05:18:26;10.80;;;9.70;;
15712;SDS011;7957;51.608;6.916;2022-09-29T05:20:53;10.50;;;9.47;;
15712;SDS011;7957;51.608;6.916;2022-09-29T05:23:20;10.90;;;9.80;;
15712;SDS011;7957;51.608;6.916;2022-09-29T05:25:48;10.40;;;9.20;;
15712;SDS011;7957;51.608;6.916;2022-09-29T05:28:15;10.90;;;9.77;;
15712;SDS011;7957;51.608;6.916;2022-09-29T05:30:42;12.23;;;9.73;;
15712;SDS011;7957;51.608;6.916;2022-09-29T05:33:09;13.63;;;10.07;;
15712;SDS011;7957;51.608;6.916;2022-09-29T05:35:36;9.77;;;8.77;;
15712;SDS011;7957;51.608;6.916;2022-09-29T05:38:03;10.83;;;9.73;;
15712;SDS011;7957;51.608;6.916;2022-09-29T05:40:30;11.87;;;9.83;;
15712;SDS011;7957;51.608;6.916;2022-09-29T05:42:58;11.20;;;10.00;;
15712;SDS011;7957;51.608;6.916;2022-09-29T05:45:25;11.90;;;9.80;;
15712;SDS011;7957;51.608;6.916;2022-09-29T05:47:53;11.67;;;9.83;;
15712;SDS011;7957;51.608;6.916;2022-09-29T05:50:20;11.57;;;10.20;;
15712;SDS011;7957;51.608;6.916;2022-09-29T05:52:48;10.47;;;9.47;;
15712;SDS011;7957;51.608;6.916;2022-09-29T05:55:16;10.07;;;9.07;;
15712;SDS011;7957;51.608;6.916;2022-09-29T05:57:46;10.77;;;9.67;;
15712;SDS011;7957;51.608;6.916;2022-09-29T06:00:15;11.20;;;10.10;;
15712;SDS011;7957;51.608;6.916;2022-09-29T06:02:42;11.33;;;9.67;;
15712;SDS011;7957;51.608;6.916;2022-09-29T06:05:09;11.23;;;10.03;;
15712;SDS011;7957;51.608;6.916;2022-09-29T06:07:36;12.87;;;10.37;;
15712;SDS011;7957;51.608;6.916;2022-09-29T06:10:03;11.20;;;10.00;;
15712;SDS011;7957;51.608;6.916;2022-09-29T06:12:32;11.53;;;10.37;;
15712;SDS011;7957;51.608;6.916;2022-09-29T06:15:01;11.37;;;10.17;;
15712;SDS011;7957;51.608;6.916;2022-09-29T06:17:30;12.63;;;10.77;;
15712;SDS011;7957;51.608;6.916;2022-09-29T06:19:58;11.63;;;9.97;;
15712;SDS011;7957;51.608;6.916;2022-09-29T06:22:25;11.53;;;10.33;;
15712;SDS011;7957;51.608;6.916;2022-09-29T06:24:52;11.27;;;10.03;;
15712;SDS011;7957;51.608;6.916;2022-09-29T06:27:19;11.67;;;10.47;;
15712;SDS011;7957;51.608;6.916;2022-09-29T06:29:47;11.33;;;10.23;;
15712;SDS011;7957;51.608;6.916;2022-09-29T06:32:14;11.73;;;10.20;;
15712;SDS011;7957;51.608;6.916;2022-09-29T06:34:42;14.33;;;10.60;;
15712;SDS011;7957;51.608;6.916;2022-09-29T06:37:23;11.43;;;10.20;;
15712;SDS011;7957;51.608;6.916;2022-09-29T06:39:59;12.60;;;10.00;;
15712;SDS011;7957;51.608;6.916;2022-09-29T06:42:29;15.13;;;10.70;;
15712;SDS011;7957;51.608;6.916;2022-09-29T06:44:56;13.07;;;10.70;;
15712;SDS011;7957;51.608;6.916;2022-09-29T06:47:23;17.77;;;10.67;;
15712;SDS011;7957;51.608;6.916;2022-09-29T06:49:51;12.80;;;10.50;;
15712;SDS011;7957;51.608;6.916;2022-09-29T06:52:18;10.93;;;9.83;;
15712;SDS011;7957;51.608;6.916;2022-09-29T06:54:45;17.00;;;11.37;;
15712;SDS011;7957;51.608;6.916;2022-09-29T06:57:12;11.93;;;10.60;;
15712;SDS011;7957;51.608;6.916;2022-09-29T06:59:39;12.57;;;10.67;;
15712;SDS011;7957;51.608;6.916;2022-09-29T07:02:07;15.77;;;10.30;;
15712;SDS011;7957;51.608;6.916;2022-09-29T07:04:35;11.47;;;10.20;;
15712;SDS011;7957;51.608;6.916;2022-09-29T07:07:03;12.00;;;10.27;;
15712;SDS011;7957;51.608;6.916;2022-09-29T07:09:30;11.10;;;9.90;;
15712;SDS011;7957;51.608;6.916;2022-09-29T07:11:57;12.77;;;10.03;;
15712;SDS011;7957;51.608;6.916;2022-09-29T07:14:25;12.97;;;10.10;;
15712;SDS011;7957;51.608;6.916;2022-09-29T07:16:52;11.43;;;10.13;;
15712;SDS011;7957;51.608;6.916;2022-09-29T07:19:19;10.37;;;9.37;;
15712;SDS011;7957;51.608;6.916;2022-09-29T07:21:46;11.27;;;9.63;;
15712;SDS011;7957;51.608;6.916;2022-09-29T07:24:14;10.53;;;9.47;;
15712;SDS011;7957;51.608;6.916;2022-09-29T07:26:41;10.73;;;9.63;;
15712;SDS011;7957;51.608;6.916;2022-09-29T07:29:08;11.67;;;9.67;;
15712;SDS011;7957;51.608;6.916;2022-09-29T07:31:35;10.40;;;9.33;;
15712;SDS011;7957;51.608;6.916;2022-09-29T07:34:04;10.97;;;9.77;;
15712;SDS011;7957;51.608;6.916;2022-09-29T07:36:31;10.07;;;9.17;;
15712;SDS011;7957;51.608;6.916;2022-09-29T07:38:58;10.60;;;9.50;;
15712;SDS011;7957;51.608;6.916;2022-09-29T07:41:26;10.50;;;9.50;;
15712;SDS011;7957;51.608;6.916;2022-09-29T07:43:53;10.23;;;9.20;;
15712;SDS011;7957;51.608;6.916;2022-09-29T07:46:20;10.07;;;9.07;;
15712;SDS011;7957;51.608;6.916;2022-09-29T07:48:48;9.67;;;8.67;;
15712;SDS011;7957;51.608;6.916;2022-09-29T07:51:16;11.70;;;9.23;;
15712;SDS011;7957;51.608;6.916;2022-09-29T07:53:45;9.63;;;8.73;;
15712;SDS011;7957;51.608;6.916;2022-09-29T07:56:13;9.67;;;8.60;;
15712;SDS011;7957;51.608;6.916;2022-09-29T07:58:44;9.73;;;8.83;;
15712;SDS011;7957;51.608;6.916;2022-09-29T08:01:11;9.37;;;8.47;;
15712;SDS011;7957;51.608;6.916;2022-09-29T08:03:41;11.33;;;9.03;;
15712;SDS011;7957;51.608;6.916;2022-09-29T08:06:10;9.30;;;8.40;;
15712;SDS011;7957;51.608;6.916;2022-09-29T08:08:38;9.27;;;8.43;;
15712;SDS011;7957;51.608;6.916;2022-09-29T08:11:07;9.67;;;8.73;;
15712;SDS011;7957;51.608;6.916;2022-09-29T08:13:35;9.07;;;8.17;;
15712;SDS011;7957;51.608;6.916;2022-09-29T08:16:05;8.83;;;8.03;;
15712;SDS011;7957;51.608;6.916;2022-09-29T08:18:33;8.53;;;7.57;;
15712;SDS011;7957;51.608;6.916;2022-09-29T08:21:01;8.70;;;7.77;;
15712;SDS011;7957;51.608;6.916;2022-09-29T08:23:30;8.43;;;7.63;;
15712;SDS011;7957;51.608;6.916;2022-09-29T08:26:00;7.83;;;7.13;;
15712;SDS011;7957;51.608;6.916;2022-09-29T08:28:29;8.13;;;7.43;;
15712;SDS011;7957;51.608;6.916;2022-09-29T08:30:56;7.47;;;6.77;;
15712;SDS011;7957;51.608;6.916;2022-09-29T08:33:29;8.97;;;8.07;;
15712;SDS011;7957;51.608;6.916;2022-09-29T08:35:56;7.30;;;6.60;;
15712;SDS011;7957;51.608;6.916;2022-09-29T08:38:24;8.50;;;7.60;;
15712;SDS011;7957;51.608;6.916;2022-09-29T08:40:51;8.03;;;7.03;;
15712;SDS011;7957;51.608;6.916;2022-09-29T08:43:22;8.00;;;7.23;;
15712;SDS011;7957;51.608;6.916;2022-09-29T08:45:55;7.47;;;6.77;;
15712;SDS011;7957;51.608;6.916;2022-09-29T08:48:26;7.27;;;6.67;;
15712;SDS011;7957;51.608;6.916;2022-09-29T08:50:59;7.60;;;6.90;;
15712;SDS011;7957;51.608;6.916;2022-09-29T08:53:29;7.77;;;7.07;;
15712;SDS011;7957;51.608;6.916;2022-09-29T08:55:59;8.90;;;6.90;;
15712;SDS011;7957;51.608;6.916;2022-09-29T08:58:30;7.20;;;6.50;;
15712;SDS011;7957;51.608;6.916;2022-09-29T09:01:02;7.03;;;6.40;;
15712;SDS011;7957;51.608;6.916;2022-09-29T09:03:57;7.33;;;6.37;;
15712;SDS011;7957;51.608;6.916;2022-09-29T09:06:39;6.87;;;6.17;;
15712;SDS011;7957;51.608;6.916;2022-09-29T09:12:23;8.33;;;6.57;;
15712;SDS011;7957;51.608;6.916;2022-09-29T09:15:13;8.07;;;6.10;;
15712;SDS011;7957;51.608;6.916;2022-09-29T09:17:50;7.83;;;6.20;;
15712;SDS011;7957;51.608;6.916;2022-09-29T09:20:28;6.60;;;6.00;;
15712;SDS011;7957;51.608;6.916;2022-09-29T09:22:59;7.77;;;6.43;;
15712;SDS011;7957;51.608;6.916;2022-09-29T09:25:32;6.33;;;5.73;;
15712;SDS011;7957;51.608;6.916;2022-09-29T09:28:04;6.30;;;5.20;;
15712;SDS011;7957;51.608;6.916;2022-09-29T09:30:41;9.27;;;7.27;;
15712;SDS011;7957;51.608;6.916;2022-09-29T09:33:16;6.93;;;6.23;;
15712;SDS011;7957;51.608;6.916;2022-09-29T09:35:50;7.37;;;6.53;;
15712;SDS011;7957;51.608;6.916;2022-09-29T09:38:20;7.27;;;6.50;;
15712;SDS011;7957;51.608;6.916;2022-09-29T09:40:52;7.47;;;6.20;;
15712;SDS011;7957;51.608;6.916;2022-09-29T09:43:22;7.37;;;6.43;;
15712;SDS011;7957;51.608;6.916;2022-09-29T09:45:57;8.50;;;6.23;;
15712;SDS011;7957;51.608;6.916;2022-09-29T09:48:29;8.70;;;6.53;;
15712;SDS011;7957;51.608;6.916;2022-09-29T09:54:02;8.13;;;7.30;;
15712;SDS011;7957;51.608;6.916;2022-09-29T09:56:40;8.07;;;7.13;;
15712;SDS011;7957;51.608;6.916;2022-09-29T09:59:20;7.43;;;6.60;;
15712;SDS011;7957;51.608;6.916;2022-09-29T10:01:55;12.20;;;8.10;;
15712;SDS011;7957;51.608;6.916;2022-09-29T10:04:22;9.77;;;7.67;;
15712;SDS011;7957;51.608;6.916;2022-09-29T10:06:51;9.13;;;7.50;;
15712;SDS011;7957;51.608;6.916;2022-09-29T10:09:18;10.03;;;7.47;;
15712;SDS011;7957;51.608;6.916;2022-09-29T10:11:45;11.10;;;8.17;;
15712;SDS011;7957;51.608;6.916;2022-09-29T10:14:13;9.43;;;8.43;;
15712;SDS011;7957;51.608;6.916;2022-09-29T10:16:45;14.13;;;8.63;;
15712;SDS011;7957;51.608;6.916;2022-09-29T10:19:19;15.33;;;8.73;;
15712;SDS011;7957;51.608;6.916;2022-09-29T10:21:47;12.17;;;9.07;;
15712;SDS011;7957;51.608;6.916;2022-09-29T10:24:22;14.77;;;8.60;;
15712;SDS011;7957;51.608;6.916;2022-09-29T10:26:53;15.17;;;8.80;;
15712;SDS011;7957;51.608;6.916;2022-09-29T10:29:24;19.07;;;9.80;;
15712;SDS011;7957;51.608;6.916;2022-09-29T10:32:01;11.17;;;9.00;;
15712;SDS011;7957;51.608;6.916;2022-09-29T10:34:31;11.80;;;9.53;;
15712;SDS011;7957;51.608;6.916;2022-09-29T10:36:59;15.13;;;10.03;;
15712;SDS011;7957;51.608;6.916;2022-09-29T10:39:30;14.93;;;9.80;;
15712;SDS011;7957;51.608;6.916;2022-09-29T10:41:59;14.40;;;11.13;;
15712;SDS011;7957;51.608;6.916;2022-09-29T10:44:29;17.50;;;11.43;;
15712;SDS011;7957;51.608;6.916;2022-09-29T10:46:58;12.97;;;10.60;;
15712;SDS011;7957;51.608;6.916;2022-09-29T10:49:26;21.47;;;11.53;;
15712;SDS011;7957;51.608;6.916;2022-09-29T10:51:55;18.80;;;11.50;;
15712;SDS011;7957;51.608;6.916;2022-09-29T10:54:28;22.40;;;11.97;;
15712;SDS011;7957;51.608;6.916;2022-09-29T10:56:59;18.00;;;11.00;;
15712;SDS011;7957;51.608;6.916;2022-09-29T10:59:43;16.37;;;10.50;;
15712;SDS011;7957;51.608;6.916;2022-09-29T11:02:15;12.40;;;9.30;;
15712;SDS011;7957;51.608;6.916;2022-09-29T11:04:47;13.17;;;9.00;;
15712;SDS011;7957;51.608;6.916;2022-09-29T11:07:15;15.43;;;8.97;;
15712;SDS011;7957;51.608;6.916;2022-09-29T11:09:44;14.90;;;9.70;;
15712;SDS011;7957;51.608;6.916;2022-09-29T11:12:23;12.03;;;9.53;;
15712;SDS011;7957;51.608;6.916;2022-09-29T11:14:53;12.20;;;8.53;;
15712;SDS011;7957;51.608;6.916;2022-09-29T11:17:21;12.60;;;9.07;;
15712;SDS011;7957;51.608;6.916;2022-09-29T11:19:49;14.77;;;8.80;;
15712;SDS011;7957;51.608;6.916;2022-09-29T11:22:27;11.33;;;8.67;;
15712;SDS011;7957;51.608;6.916;2022-09-29T11:25:36;10.13;;;9.00;;
15712;SDS011;7957;51.608;6.916;2022-09-29T11:28:21;14.33;;;9.40;;
15712;SDS011;7957;51.608;6.916;2022-09-29T11:31:15;14.17;;;9.23;;
15712;SDS011;7957;51.608;6.916;2022-09-29T11:34:02;10.37;;;9.37;;
15712;SDS011;7957;51.608;6.916;2022-09-29T11:36:42;11.80;;;9.00;;
15712;SDS011;7957;51.608;6.916;2022-09-29T11:39:20;11.27;;;8.70;;
15712;SDS011;7957;51.608;6.916;2022-09-29T11:42:01;10.40;;;8.33;;
15712;SDS011;7957;51.608;6.916;2022-09-29T11:44:48;12.67;;;7.50;;
15712;SDS011;7957;51.608;6.916;2022-09-29T11:47:27;13.77;;;7.03;;
15712;SDS011;7957;51.608;6.916;2022-09-29T11:50:20;9.43;;;6.80;;
15712;SDS011;7957;51.608;6.916;2022-09-29T11:53:13;9.47;;;6.00;;
15712;SDS011;7957;51.608;6.916;2022-09-29T11:56:00;7.20;;;5.50;;
15712;SDS011;7957;51.608;6.916;2022-09-29T11:58:40;11.27;;;6.67;;
15712;SDS011;7957;51.608;6.916;2022-09-29T12:01:24;9.50;;;5.50;;
15712;SDS011;7957;51.608;6.916;2022-09-29T12:04:01;7.53;;;5.60;;
15712;SDS011;7957;51.608;6.916;2022-09-29T12:06:51;10.47;;;5.10;;
15712;SDS011;7957;51.608;6.916;2022-09-29T12:09:25;8.17;;;5.53;;
15712;SDS011;7957;51.608;6.916;2022-09-29T12:12:02;7.23;;;5.23;;
15712;SDS011;7957;51.608;6.916;2022-09-29T12:14:49;8.10;;;5.87;;
15712;SDS011;7957;51.608;6.916;2022-09-29T12:17:26;6.80;;;5.40;;
15712;SDS011;7957;51.608;6.916;2022-09-29T12:19:58;9.30;;;5.17;;
15712;SDS011;7957;51.608;6.916;2022-09-29T12:22:30;7.17;;;5.40;;
15712;SDS011;7957;51.608;6.916;2022-09-29T12:24:57;9.50;;;4.97;;
15712;SDS011;7957;51.608;6.916;2022-09-29T12:27:27;8.30;;;5.33;;
15712;SDS011;7957;51.608;6.916;2022-09-29T12:30:01;6.40;;;4.90;;
15712;SDS011;7957;51.608;6.916;2022-09-29T12:32:33;11.60;;;4.40;;
15712;SDS011;7957;51.608;6.916;2022-09-29T12:35:05;11.63;;;4.80;;
15712;SDS011;7957;51.608;6.916;2022-09-29T12:37:38;11.40;;;4.57;;
15712;SDS011;7957;51.608;6.916;2022-09-29T12:40:09;5.30;;;4.07;;
15712;SDS011;7957;51.608;6.916;2022-09-29T12:45:36;7.77;;;3.67;;
15712;SDS011;7957;51.608;6.916;2022-09-29T12:48:22;4.33;;;3.33;;
15712;SDS011;7957;51.608;6.916;2022-09-29T12:50:58;4.73;;;3.63;;
15712;SDS011;7957;51.608;6.916;2022-09-29T12:53:30;7.63;;;3.80;;
15712;SDS011;7957;51.608;6.916;2022-09-29T12:56:00;5.67;;;3.10;;
15712;SDS011;7957;51.608;6.916;2022-09-29T12:58:31;4.27;;;3.10;;
15712;SDS011;7957;51.608;6.916;2022-09-29T13:01:08;7.00;;;3.37;;
15712;SDS011;7957;51.608;6.916;2022-09-29T13:07:00;3.90;;;2.80;;
15712;SDS011;7957;51.608;6.916;2022-09-29T13:10:12;4.73;;;3.10;;
15712;SDS011;7957;51.608;6.916;2022-09-29T13:12:56;4.00;;;2.70;;
15712;SDS011;7957;51.608;6.916;2022-09-29T13:15:55;3.00;;;2.30;;
15712;SDS011;7957;51.608;6.916;2022-09-29T13:18:44;5.03;;;2.67;;
15712;SDS011;7957;51.608;6.916;2022-09-29T13:21:24;4.23;;;2.40;;
15712;SDS011;7957;51.608;6.916;2022-09-29T13:24:05;4.47;;;2.43;;
15712;SDS011;7957;51.608;6.916;2022-09-29T13:29:54;2.83;;;2.13;;
15712;SDS011;7957;51.608;6.916;2022-09-29T13:32:23;2.90;;;2.17;;
15712;SDS011;7957;51.608;6.916;2022-09-29T13:34:54;4.87;;;2.10;;
15712;SDS011;7957;51.608;6.916;2022-09-29T13:37:23;3.30;;;2.20;;
15712;SDS011;7957;51.608;6.916;2022-09-29T13:39:54;7.67;;;2.10;;
15712;SDS011;7957;51.608;6.916;2022-09-29T13:42:35;9.60;;;2.37;;
15712;SDS011;7957;51.608;6.916;2022-09-29T13:54:20;3.37;;;1.80;;
15712;SDS011;7957;51.608;6.916;2022-09-29T13:56:58;3.53;;;1.83;;
15712;SDS011;7957;51.608;6.916;2022-09-29T13:59:42;2.63;;;1.80;;
15712;SDS011;7957;51.608;6.916;2022-09-29T14:02:19;3.47;;;1.77;;
15712;SDS011;7957;51.608;6.916;2022-09-29T14:04:53;6.60;;;2.33;;
15712;SDS011;7957;51.608;6.916;2022-09-29T14:07:36;4.60;;;2.40;;
15712;SDS011;7957;51.608;6.916;2022-09-29T14:10:14;5.63;;;2.23;;
15712;SDS011;7957;51.608;6.916;2022-09-29T14:12:46;5.80;;;2.33;;
15712;SDS011;7957;51.608;6.916;2022-09-29T14:15:20;3.97;;;2.37;;
15712;SDS011;7957;51.608;6.916;2022-09-29T14:17:49;3.67;;;2.10;;
15712;SDS011;7957;51.608;6.916;2022-09-29T14:20:23;4.53;;;2.20;;
15712;SDS011;7957;51.608;6.916;2022-09-29T14:22:57;3.90;;;2.20;;
15712;SDS011;7957;51.608;6.916;2022-09-29T14:31:15;4.43;;;2.13;;
15712;SDS011;7957;51.608;6.916;2022-09-29T14:33:46;5.53;;;2.13;;
15712;SDS011;7957;51.608;6.916;2022-09-29T14:36:17;3.40;;;2.20;;
15712;SDS011;7957;51.608;6.916;2022-09-29T14:38:48;5.10;;;2.17;;
15712;SDS011;7957;51.608;6.916;2022-09-29T14:41:25;4.97;;;1.90;;
15712;SDS011;7957;51.608;6.916;2022-09-29T14:43:56;3.07;;;1.90;;
15712;SDS011;7957;51.608;6.916;2022-09-29T14:46:34;6.63;;;2.20;;
15712;SDS011;7957;51.608;6.916;2022-09-29T14:49:41;4.20;;;1.93;;
15712;SDS011;7957;51.608;6.916;2022-09-29T14:52:42;5.53;;;2.10;;
15712;SDS011;7957;51.608;6.916;2022-09-29T14:55:20;7.87;;;1.97;;
15712;SDS011;7957;51.608;6.916;2022-09-29T14:57:59;2.93;;;1.80;;
15712;SDS011;7957;51.608;6.916;2022-09-29T15:00:43;2.57;;;1.50;;
15712;SDS011;7957;51.608;6.916;2022-09-29T15:03:23;3.20;;;1.67;;
15712;SDS011;7957;51.608;6.916;2022-09-29T15:06:04;4.87;;;2.10;;
15712;SDS011;7957;51.608;6.916;2022-09-29T15:08:36;4.00;;;1.80;;
15712;SDS011;7957;51.608;6.916;2022-09-29T15:13:49;3.47;;;2.07;;
15712;SDS011;7957;51.608;6.916;2022-09-29T15:16:20;4.40;;;2.30;;
15712;SDS011;7957;51.608;6.916;2022-09-29T15:18:56;3.80;;;2.27;;
15712;SDS011;7957;51.608;6.916;2022-09-29T15:21:36;5.47;;;2.10;;
15712;SDS011;7957;51.608;6.916;2022-09-29T15:24:13;8.30;;;2.10;;
15712;SDS011;7957;51.608;6.916;2022-09-29T15:26:52;4.83;;;2.10;;
15712;SDS011;7957;51.608;6.916;2022-09-29T15:29:19;4.43;;;2.60;;
15712;SDS011;7957;51.608;6.916;2022-09-29T15:31:46;3.27;;;2.10;;
15712;SDS011;7957;51.608;6.916;2022-09-29T15:34:16;3.77;;;2.13;;
15712;SDS011;7957;51.608;6.916;2022-09-29T15:36:45;4.93;;;2.27;;
15712;SDS011;7957;51.608;6.916;2022-09-29T15:39:28;4.43;;;2.17;;
15712;SDS011;7957;51.608;6.916;2022-09-29T15:42:12;3.10;;;2.27;;
15712;SDS011;7957;51.608;6.916;2022-09-29T15:44:48;4.33;;;2.40;;
15712;SDS011;7957;51.608;6.916;2022-09-29T15:47:20;2.60;;;2.10;;
15712;SDS011;7957;51.608;6.916;2022-09-29T15:49:52;2.90;;;2.30;;
15712;SDS011;7957;51.608;6.916;2022-09-29T15:52:19;5.27;;;2.40;;
15712;SDS011;7957;51.608;6.916;2022-09-29T15:54:52;5.47;;;2.50;;
15712;SDS011;7957;51.608;6.916;2022-09-29T15:57:29;3.67;;;2.20;;
15712;SDS011;7957;51.608;6.916;2022-09-29T16:03:09;3.47;;;2.10;;
15712;SDS011;7957;51.608;6.916;2022-09-29T16:05:40;5.33;;;2.47;;